Paradise, Missouri
Current Conditions -  °F | °C
As of 4:53 PM on Saturday 20 Dec 2014 (Local Time) from KMCI Reporting Station
Haze Haze  
Wind Chill: 39°   Ceiling: 2100
Heat Index: 44°   Visibility: 6mi
Dew Point: 39°   Wind: 9mph
Humidity: 82%   Direction: 190°S
Pressure: 30.11"   Gusts: NA
Location:  39.3944°N, 94.5382°W
Report Text: KMCI 202253Z 19008KT 6SM BR OVC021 07/04 A3011 RMK AO2 SLP200 T00670039 $
Loading
Personal Weather Stations






























Interactive Weather Map New forecast layout! Learn more

10-Day Weather Forecast

Advertisements
Track Severe Weather on mobile